Terminal Aerodrome Forecast
Issued by NWS

Home | Current Version | Previous Version | Text Only | Print | Product List | Glossary On
Versions: 1 2 3 4 5 6 7 8 9 10 11 12 13 14
843
FTAK31 PAJN 222330
TAFAJN
TAF
PAJN 222330Z 2300/2324 VRB06KT P6SM BKN060 OVC100
     FM230400 11010KT 6SM -SN FEW004 SCT010 OVC025
     FM231200 12012KT 2SM -SN BR BKN008 OVC020
     FM232200 12012G20KT 5SM -RASN SCT010 BKN025 OVC040=

USA.gov is the U.S. government's official web portal to all federal, state and local government web resources and services.